createdAt,value
2017-12-08T00:01:00.030Z,0
2017-12-08T00:01:59.755Z,0
2017-12-08T00:02:59.729Z,0
2017-12-08T00:03:59.720Z,0
2017-12-08T00:04:59.709Z,0
2017-12-08T00:05:59.954Z,0
2017-12-08T00:06:59.934Z,0
2017-12-08T00:07:59.926Z,0
2017-12-08T00:08:59.666Z,0
2017-12-08T00:09:59.647Z,0
2017-12-08T00:10:59.627Z,0
2017-12-08T00:11:59.901Z,0
2017-12-08T00:12:59.877Z,0
2017-12-08T00:13:59.855Z,0
2017-12-08T00:14:59.334Z,0
2017-12-08T00:15:59.832Z,0
2017-12-08T00:16:59.831Z,0
2017-12-08T00:17:59.826Z,0
2017-12-08T00:18:59.537Z,0
2017-12-08T00:19:59.798Z,0
2017-12-08T00:20:59.776Z,0
2017-12-08T00:21:59.515Z,0
2017-12-08T00:22:59.737Z,0
2017-12-08T00:23:59.722Z,0
2017-12-08T00:24:59.479Z,0
2017-12-08T00:25:59.474Z,0
2017-12-08T00:26:59.196Z,0
2017-12-08T00:27:59.440Z,0
2017-12-08T00:28:59.425Z,0
2017-12-08T00:29:59.406Z,0
2017-12-08T00:30:59.413Z,0
2017-12-08T00:31:59.650Z,0
2017-12-08T00:32:59.639Z,0
2017-12-08T00:33:59.386Z,0
2017-12-08T00:34:59.623Z,0
2017-12-08T00:35:59.362Z,0
2017-12-08T00:36:59.598Z,0
2017-12-08T00:37:59.314Z,0
2017-12-08T00:38:59.571Z,0
2017-12-08T00:39:59.566Z,0
2017-12-08T00:40:59.034Z,0
2017-12-08T00:41:59.531Z,0
2017-12-08T00:42:59.520Z,0
2017-12-08T00:43:59.520Z,0
2017-12-08T00:44:59.518Z,0
2017-12-08T00:45:59.508Z,0
2017-12-08T00:46:59.509Z,0
2017-12-08T00:47:59.467Z,0
2017-12-08T00:48:59.200Z,0
2017-12-08T00:49:59.171Z,0
2017-12-08T00:50:59.189Z,0
2017-12-08T00:51:59.413Z,0
2017-12-08T00:52:59.408Z,0
2017-12-08T00:53:59.398Z,0
2017-12-08T00:54:59.420Z,0
2017-12-08T00:55:59.369Z,0
2017-12-08T00:56:59.358Z,0
2017-12-08T00:57:59.100Z,0
2017-12-08T00:58:59.083Z,0
2017-12-08T00:59:59.305Z,0
2017-12-08T01:00:59.040Z,0
2017-12-08T01:01:59.056Z,0
2017-12-08T01:02:59.301Z,0
2017-12-08T01:03:59.290Z,0
2017-12-08T01:04:59.003Z,0
2017-12-08T01:05:59.242Z,0
2017-12-08T01:06:58.721Z,0
2017-12-08T01:07:58.976Z,0
2017-12-08T01:08:59.209Z,0
2017-12-08T01:09:58.938Z,0
2017-12-08T01:10:59.221Z,0
2017-12-08T01:11:58.926Z,0
2017-12-08T01:12:58.915Z,0
2017-12-08T01:13:59.164Z,0
2017-12-08T01:14:58.900Z,0
2017-12-08T01:15:59.138Z,0
2017-12-08T01:16:59.124Z,0
2017-12-08T01:17:58.886Z,0
2017-12-08T01:18:58.828Z,0
2017-12-08T01:19:59.131Z,0
2017-12-08T01:20:58.552Z,0
2017-12-08T01:21:59.077Z,0
2017-12-08T01:22:59.051Z,0
2017-12-08T01:23:58.776Z,0
2017-12-08T01:24:59.021Z,0
2017-12-08T01:25:58.775Z,0
2017-12-08T01:26:58.994Z,0
2017-12-08T01:27:58.992Z,0
2017-12-08T01:28:58.972Z,0
2017-12-08T01:29:58.961Z,0
2017-12-08T01:30:58.709Z,0
2017-12-08T01:31:58.951Z,0
2017-12-08T01:32:58.676Z,0
2017-12-08T01:33:58.933Z,0
2017-12-08T01:34:58.911Z,0
2017-12-08T01:35:58.894Z,0
2017-12-08T01:36:58.902Z,0
2017-12-08T01:37:58.860Z,0
2017-12-08T01:38:58.853Z,0
2017-12-08T01:39:58.861Z,0
2017-12-08T01:40:58.838Z,0
2017-12-08T01:41:58.838Z,0
2017-12-08T01:42:58.827Z,0
2017-12-08T01:43:58.804Z,0
2017-12-08T01:44:58.802Z,0
2017-12-08T01:45:58.783Z,0
2017-12-08T01:46:58.762Z,0
2017-12-08T01:47:58.771Z,0
2017-12-08T01:48:58.753Z,0
2017-12-08T01:49:58.733Z,0
2017-12-08T01:50:58.454Z,0
2017-12-08T01:51:58.702Z,0
2017-12-08T01:52:58.702Z,0
2017-12-08T01:53:58.697Z,0
2017-12-08T01:54:58.682Z,0
2017-12-08T01:55:58.665Z,0
2017-12-08T01:56:58.150Z,0
2017-12-08T01:57:58.653Z,0
2017-12-08T01:58:58.360Z,0
2017-12-08T01:59:58.622Z,0
2017-12-08T02:00:58.605Z,0
2017-12-08T02:01:58.340Z,0
2017-12-08T02:02:58.605Z,0
2017-12-08T02:03:58.580Z,0
2017-12-08T02:04:58.571Z,0
2017-12-08T02:05:58.559Z,0
2017-12-08T02:06:58.538Z,0
2017-12-08T02:07:58.285Z,0
2017-12-08T02:08:58.524Z,0
2017-12-08T02:09:58.255Z,0
2017-12-08T02:10:58.524Z,0
2017-12-08T02:11:58.519Z,0
2017-12-08T02:12:58.516Z,0
2017-12-08T02:13:58.194Z,0
2017-12-08T02:14:58.473Z,0
2017-12-08T02:15:58.451Z,0
2017-12-08T02:16:58.440Z,0
2017-12-08T02:17:58.449Z,0
2017-12-08T02:18:58.422Z,0
2017-12-08T02:19:58.381Z,0
2017-12-08T02:20:58.128Z,0
2017-12-08T02:21:58.117Z,0
2017-12-08T02:22:58.342Z,0
2017-12-08T02:23:58.359Z,0
2017-12-08T02:24:58.315Z,0
2017-12-08T02:25:58.056Z,0
2017-12-08T02:26:58.305Z,0
2017-12-08T02:27:58.301Z,0
2017-12-08T02:28:58.311Z,0
2017-12-08T02:29:58.278Z,0
2017-12-08T02:30:58.012Z,0
2017-12-08T02:31:58.235Z,0
2017-12-08T02:32:58.282Z,0
2017-12-08T02:33:58.231Z,0
2017-12-08T02:34:57.964Z,0
2017-12-08T02:35:58.214Z,0
2017-12-08T02:36:58.189Z,0
2017-12-08T02:37:58.175Z,0
2017-12-08T02:38:58.161Z,0
2017-12-08T02:39:58.151Z,0
2017-12-08T02:40:58.160Z,0
2017-12-08T02:41:58.140Z,0
2017-12-08T02:42:58.133Z,0
2017-12-08T02:43:58.122Z,0
2017-12-08T02:44:58.124Z,0
2017-12-08T02:45:57.825Z,0
2017-12-08T02:46:58.086Z,0
2017-12-08T02:47:58.068Z,0
2017-12-08T02:48:58.061Z,0
2017-12-08T02:49:58.056Z,0
2017-12-08T02:50:58.052Z,0
2017-12-08T02:51:58.053Z,0
2017-12-08T02:52:58.013Z,0
2017-12-08T02:53:58.029Z,0
2017-12-08T02:54:57.984Z,0
2017-12-08T02:55:57.978Z,0
2017-12-08T02:56:57.964Z,0
2017-12-08T02:57:57.950Z,0
2017-12-08T02:58:57.942Z,0
2017-12-08T02:59:57.918Z,0
2017-12-08T03:00:57.913Z,0
2017-12-08T03:01:57.904Z,0
2017-12-08T03:02:57.628Z,0
2017-12-08T03:03:57.881Z,0
2017-12-08T03:04:57.871Z,0
2017-12-08T03:05:57.852Z,0
2017-12-08T03:06:57.588Z,0
2017-12-08T03:07:57.838Z,0
2017-12-08T03:08:57.821Z,0
2017-12-08T03:09:57.819Z,0
2017-12-08T03:10:57.555Z,0
2017-12-08T03:11:57.786Z,0
2017-12-08T03:12:57.775Z,0
2017-12-08T03:13:57.512Z,0
2017-12-08T03:14:57.751Z,0
2017-12-08T03:15:57.745Z,0
2017-12-08T03:16:57.720Z,0
2017-12-08T03:17:57.726Z,0
2017-12-08T03:18:57.714Z,0
2017-12-08T03:19:57.692Z,0
2017-12-08T03:20:57.688Z,0
2017-12-08T03:21:57.667Z,0
2017-12-08T03:22:57.404Z,0
2017-12-08T03:23:57.725Z,0
2017-12-08T03:24:57.384Z,0
2017-12-08T03:25:57.642Z,0
2017-12-08T03:26:57.627Z,0
2017-12-08T03:27:57.622Z,0
2017-12-08T03:28:57.596Z,0
2017-12-08T03:29:57.581Z,0
2017-12-08T03:30:57.585Z,0
2017-12-08T03:31:57.563Z,0
2017-12-08T03:32:57.541Z,0
2017-12-08T03:33:57.277Z,0
2017-12-08T03:34:57.528Z,0
2017-12-08T03:35:57.528Z,0
2017-12-08T03:36:57.506Z,0
2017-12-08T03:37:57.501Z,0
2017-12-08T03:38:57.483Z,0
2017-12-08T03:39:57.484Z,0
2017-12-08T03:40:57.456Z,0
2017-12-08T03:41:57.447Z,0
2017-12-08T03:42:57.547Z,0
2017-12-08T03:43:57.174Z,0
2017-12-08T03:44:57.832Z,0
2017-12-08T03:45:57.151Z,0
2017-12-08T03:46:57.385Z,0
2017-12-08T03:47:57.386Z,0
2017-12-08T03:48:57.371Z,0
2017-12-08T03:49:57.110Z,0
2017-12-08T03:50:57.349Z,0
2017-12-08T03:51:57.346Z,0
2017-12-08T03:52:57.065Z,0
2017-12-08T03:53:57.356Z,0
2017-12-08T03:54:56.795Z,0
2017-12-08T03:55:57.301Z,0
2017-12-08T03:56:57.292Z,0
2017-12-08T03:57:57.271Z,0
2017-12-08T03:58:57.254Z,0
2017-12-08T03:59:57.239Z,0
2017-12-08T04:00:57.233Z,0
2017-12-08T04:01:56.986Z,0
2017-12-08T04:02:57.205Z,0
2017-12-08T04:03:57.205Z,0
2017-12-08T04:04:57.183Z,0
2017-12-08T04:05:57.186Z,0
2017-12-08T04:06:56.921Z,0
2017-12-08T04:07:57.164Z,0
2017-12-08T04:08:57.133Z,0
2017-12-08T04:09:57.134Z,0
2017-12-08T04:10:56.861Z,0
2017-12-08T04:11:56.857Z,0
2017-12-08T04:12:57.101Z,0
2017-12-08T04:13:57.082Z,0
2017-12-08T04:14:57.091Z,0
2017-12-08T04:15:57.071Z,0
2017-12-08T04:16:56.801Z,0
2017-12-08T04:17:57.059Z,0
2017-12-08T04:18:57.033Z,0
2017-12-08T04:19:57.028Z,0
2017-12-08T04:20:57.006Z,0
2017-12-08T04:21:56.981Z,0
2017-12-08T04:22:56.994Z,0
2017-12-08T04:23:56.974Z,0
2017-12-08T04:24:56.954Z,0
2017-12-08T04:25:56.948Z,0
2017-12-08T04:26:56.943Z,0
2017-12-08T04:27:56.933Z,0
2017-12-08T04:28:56.661Z,0
2017-12-08T04:29:56.959Z,0
2017-12-08T04:30:56.928Z,0
2017-12-08T04:31:56.920Z,0
2017-12-08T04:32:56.867Z,0
2017-12-08T04:33:56.608Z,0
2017-12-08T04:34:56.860Z,0
2017-12-08T04:35:56.892Z,0
2017-12-08T04:36:56.859Z,0
2017-12-08T04:37:56.802Z,0
2017-12-08T04:38:56.792Z,0
2017-12-08T04:39:56.779Z,0
2017-12-08T04:40:56.767Z,0
2017-12-08T04:41:56.769Z,0
2017-12-08T04:42:56.745Z,0
2017-12-08T04:43:56.728Z,0
2017-12-08T04:44:56.726Z,0
2017-12-08T04:45:56.705Z,0
2017-12-08T04:46:56.705Z,0
2017-12-08T04:47:56.681Z,0
2017-12-08T04:48:56.693Z,0
2017-12-08T04:49:56.676Z,0
2017-12-08T04:50:56.713Z,0
2017-12-08T04:51:56.369Z,0
2017-12-08T04:52:56.433Z,0
2017-12-08T04:53:56.363Z,0
2017-12-08T04:54:56.603Z,0
2017-12-08T04:55:56.661Z,0
2017-12-08T04:56:56.331Z,0
2017-12-08T04:57:56.582Z,0
2017-12-08T04:58:56.540Z,0
2017-12-08T04:59:56.545Z,0
2017-12-08T05:00:56.340Z,0
2017-12-08T05:01:56.532Z,0
2017-12-08T05:02:56.503Z,0
2017-12-08T05:03:56.501Z,0
2017-12-08T05:04:56.488Z,0
2017-12-08T05:05:56.479Z,0
2017-12-08T05:06:56.450Z,0
2017-12-08T05:07:56.449Z,0
2017-12-08T05:08:56.435Z,0
2017-12-08T05:09:56.407Z,0
2017-12-08T05:10:56.402Z,0
2017-12-08T05:11:56.399Z,0
2017-12-08T05:12:56.375Z,0
2017-12-08T05:13:56.365Z,0
2017-12-08T05:14:56.369Z,0
2017-12-08T05:15:56.101Z,0
2017-12-08T05:16:56.351Z,0
2017-12-08T05:17:56.328Z,0
2017-12-08T05:18:56.057Z,0
2017-12-08T05:19:56.298Z,0
2017-12-08T05:20:56.279Z,0
2017-12-08T05:21:56.260Z,0
2017-12-08T05:22:56.255Z,0
2017-12-08T05:23:56.246Z,0
2017-12-08T05:24:56.246Z,0
2017-12-08T05:25:56.218Z,0
2017-12-08T05:26:56.203Z,0
2017-12-08T05:27:56.231Z,0
2017-12-08T05:28:55.927Z,0
2017-12-08T05:29:56.172Z,0
2017-12-08T05:30:55.904Z,0
2017-12-08T05:31:55.640Z,0
2017-12-08T05:32:56.162Z,0
2017-12-08T05:33:56.131Z,0
2017-12-08T05:34:56.104Z,0
2017-12-08T05:35:55.893Z,0
2017-12-08T05:36:55.829Z,0
2017-12-08T05:37:56.099Z,0
2017-12-08T05:38:56.066Z,0
2017-12-08T05:39:55.799Z,0
2017-12-08T05:40:56.040Z,0
2017-12-08T05:41:56.012Z,0
2017-12-08T05:42:56.001Z,0
2017-12-08T05:43:55.764Z,0
2017-12-08T05:44:55.972Z,0
2017-12-08T05:45:55.960Z,0
2017-12-08T05:46:55.962Z,0
2017-12-08T05:47:55.943Z,0
2017-12-08T05:48:55.934Z,0
2017-12-08T05:49:55.925Z,0
2017-12-08T05:50:55.919Z,0
2017-12-08T05:51:55.890Z,0
2017-12-08T05:52:55.632Z,0
2017-12-08T05:53:55.614Z,0
2017-12-08T05:54:55.872Z,0
2017-12-08T05:55:55.978Z,0
2017-12-08T05:56:55.583Z,0
2017-12-08T05:57:55.831Z,0
2017-12-08T05:58:55.832Z,0
2017-12-08T05:59:55.288Z,0
2017-12-08T06:00:55.525Z,0
2017-12-08T06:01:55.772Z,0
2017-12-08T06:02:55.761Z,0
2017-12-08T06:03:55.759Z,0
2017-12-08T06:04:55.746Z,0
2017-12-08T06:05:55.743Z,0
2017-12-08T06:06:55.732Z,0
2017-12-08T06:07:55.751Z,0
2017-12-08T06:08:55.450Z,0
2017-12-08T06:09:55.693Z,0
2017-12-08T06:10:55.662Z,0
2017-12-08T06:11:55.667Z,0
2017-12-08T06:12:55.653Z,0
2017-12-08T06:13:55.631Z,0
2017-12-08T06:14:55.355Z,0
2017-12-08T06:15:55.611Z,0
2017-12-08T06:16:55.620Z,0
2017-12-08T06:17:55.588Z,0
2017-12-08T06:18:55.562Z,0
2017-12-08T06:19:55.581Z,0
2017-12-08T06:20:55.552Z,0
2017-12-08T06:21:55.294Z,0
2017-12-08T06:22:55.307Z,0
2017-12-08T06:23:55.008Z,0
2017-12-08T06:24:55.534Z,0
2017-12-08T06:25:55.500Z,0
2017-12-08T06:26:55.488Z,4
2017-12-08T06:27:55.484Z,4
2017-12-08T06:28:55.457Z,0
2017-12-08T06:29:55.446Z,0
2017-12-08T06:30:55.502Z,4
2017-12-08T06:31:55.436Z,8
2017-12-08T06:32:55.163Z,8
2017-12-08T06:33:55.409Z,8
2017-12-08T06:34:55.412Z,8
2017-12-08T06:35:55.138Z,8
2017-12-08T06:36:55.374Z,12
2017-12-08T06:37:55.356Z,12
2017-12-08T06:38:55.355Z,12
2017-12-08T06:39:55.075Z,16
2017-12-08T06:40:55.320Z,20
2017-12-08T06:41:55.061Z,28
2017-12-08T06:42:55.312Z,28
2017-12-08T06:43:55.288Z,40
2017-12-08T06:44:55.288Z,48
2017-12-08T06:45:55.301Z,60
2017-12-08T06:46:55.259Z,68
2017-12-08T06:47:54.998Z,76
2017-12-08T06:48:55.231Z,84
2017-12-08T06:49:55.220Z,96
2017-12-08T06:50:54.940Z,104
2017-12-08T06:51:55.200Z,116
2017-12-08T06:52:55.199Z,132
2017-12-08T06:53:55.177Z,148
2017-12-08T06:54:54.922Z,160
2017-12-08T06:55:54.904Z,176
2017-12-08T06:56:55.136Z,192
2017-12-08T06:57:55.139Z,208
2017-12-08T06:58:55.120Z,232
2017-12-08T06:59:55.121Z,248
2017-12-08T07:00:54.839Z,272
2017-12-08T07:01:55.085Z,272
2017-12-08T07:02:55.066Z,288
2017-12-08T07:03:55.068Z,276
2017-12-08T07:04:55.047Z,324
2017-12-08T07:05:55.048Z,364
2017-12-08T07:06:55.012Z,408
2017-12-08T07:07:55.004Z,444
2017-12-08T07:08:54.748Z,484
2017-12-08T07:09:54.983Z,516
2017-12-08T07:10:54.985Z,544
2017-12-08T07:11:54.717Z,580
2017-12-08T07:12:54.952Z,620
2017-12-08T07:13:54.928Z,656
2017-12-08T07:14:54.680Z,692
2017-12-08T07:15:54.927Z,724
2017-12-08T07:16:54.903Z,756
2017-12-08T07:17:54.691Z,792
2017-12-08T07:18:54.872Z,828
2017-12-08T07:19:54.892Z,864
2017-12-08T07:20:54.850Z,900
2017-12-08T07:21:54.845Z,936
2017-12-08T07:22:54.826Z,976
2017-12-08T07:23:54.813Z,1012
2017-12-08T07:24:54.811Z,1048
2017-12-08T07:25:54.796Z,1084
2017-12-08T07:26:54.770Z,1124
2017-12-08T07:27:54.782Z,1168
2017-12-08T07:28:54.762Z,1216
2017-12-08T07:29:54.737Z,1252
2017-12-08T07:30:54.741Z,1284
2017-12-08T07:31:54.763Z,1324
2017-12-08T07:32:54.455Z,1356
2017-12-08T07:33:54.738Z,1408
2017-12-08T07:34:54.668Z,1456
2017-12-08T07:35:54.655Z,1492
2017-12-08T07:36:54.655Z,1524
2017-12-08T07:37:54.384Z,1580
2017-12-08T07:38:54.635Z,1644
2017-12-08T07:39:54.601Z,1700
2017-12-08T07:40:54.616Z,1732
2017-12-08T07:41:54.644Z,1776
2017-12-08T07:42:54.597Z,1820
2017-12-08T07:43:54.574Z,1832
2017-12-08T07:44:54.545Z,1872
2017-12-08T07:45:54.538Z,1876
2017-12-08T07:46:54.528Z,1868
2017-12-08T07:47:54.262Z,1880
2017-12-08T07:48:54.508Z,1900
2017-12-08T07:49:54.238Z,1928
2017-12-08T07:50:54.469Z,1960
2017-12-08T07:51:54.462Z,2000
2017-12-08T07:52:54.444Z,2032
2017-12-08T07:53:54.438Z,2068
2017-12-08T07:54:54.431Z,2100
2017-12-08T07:55:54.407Z,2120
2017-12-08T07:56:54.378Z,2152
2017-12-08T07:57:54.391Z,2216
2017-12-08T07:58:54.497Z,2312
2017-12-08T07:59:54.354Z,2396
2017-12-08T08:00:54.339Z,2432
2017-12-08T08:01:54.339Z,2468
2017-12-08T08:02:54.067Z,2516
2017-12-08T08:03:54.306Z,2588
2017-12-08T08:04:54.305Z,2600
2017-12-08T08:05:54.288Z,2652
2017-12-08T08:06:54.258Z,2692
2017-12-08T08:07:54.007Z,2712
2017-12-08T08:08:54.246Z,2736
2017-12-08T08:09:54.251Z,2744
2017-12-08T08:10:54.205Z,2756
2017-12-08T08:11:54.204Z,2776
2017-12-08T08:12:54.194Z,2800
2017-12-08T08:13:53.928Z,2832
2017-12-08T08:14:54.144Z,2872
2017-12-08T08:15:54.149Z,2900
2017-12-08T08:16:54.140Z,2944
2017-12-08T08:17:54.136Z,2980
2017-12-08T08:18:54.141Z,3012
2017-12-08T08:19:54.118Z,3020
2017-12-08T08:20:53.825Z,3012
2017-12-08T08:21:54.083Z,3024
2017-12-08T08:22:53.810Z,3044
2017-12-08T08:23:54.056Z,3068
2017-12-08T08:24:54.030Z,3080
2017-12-08T08:25:54.064Z,3080
2017-12-08T08:26:54.003Z,3088
2017-12-08T08:27:53.992Z,3108
2017-12-08T08:28:53.804Z,3120
2017-12-08T08:29:53.972Z,3132
2017-12-08T08:30:53.696Z,3148
2017-12-08T08:31:53.696Z,3164
2017-12-08T08:32:53.426Z,3188
2017-12-08T08:33:53.916Z,3200
2017-12-08T08:34:53.919Z,3204
2017-12-08T08:35:53.909Z,3204
2017-12-08T08:36:53.887Z,3212
2017-12-08T08:37:53.617Z,3216
2017-12-08T08:38:53.857Z,3228
2017-12-08T08:39:53.863Z,3236
2017-12-08T08:40:53.882Z,3248
2017-12-08T08:41:53.823Z,3276
2017-12-08T08:42:53.803Z,3308
2017-12-08T08:43:53.803Z,3332
2017-12-08T08:44:53.806Z,3344
2017-12-08T08:45:53.801Z,3360
2017-12-08T08:46:53.759Z,3384
2017-12-08T08:47:53.482Z,3388
2017-12-08T08:48:53.255Z,3400
2017-12-08T08:49:53.467Z,3412
2017-12-08T08:50:53.730Z,3424
2017-12-08T08:51:53.719Z,3436
2017-12-08T08:52:53.732Z,3460
2017-12-08T08:53:53.670Z,3468
2017-12-08T08:54:53.697Z,3464
2017-12-08T08:55:53.703Z,3476
2017-12-08T08:56:53.660Z,3484
2017-12-08T08:57:53.372Z,3508
2017-12-08T08:58:53.901Z,3524
2017-12-08T08:59:53.657Z,3528
2017-12-08T09:00:53.609Z,3520
2017-12-08T09:01:53.600Z,3512
2017-12-08T09:02:53.652Z,3512
2017-12-08T09:03:53.857Z,3508
2017-12-08T09:04:53.577Z,3508
2017-12-08T09:05:53.585Z,3564
2017-12-08T09:06:53.080Z,3604
2017-12-08T09:07:53.625Z,3592
2017-12-08T09:08:53.667Z,3592
2017-12-08T09:09:53.487Z,3608
2017-12-08T09:10:53.488Z,3604
2017-12-08T09:11:53.455Z,3596
2017-12-08T09:12:53.444Z,3588
2017-12-08T09:13:53.435Z,3604
2017-12-08T09:14:53.423Z,3636
2017-12-08T09:15:53.408Z,3680
2017-12-08T09:16:53.428Z,3808
2017-12-08T09:17:53.393Z,3988
2017-12-08T09:18:53.445Z,4060
2017-12-08T09:19:53.365Z,4044
2017-12-08T09:20:53.354Z,4000
2017-12-08T09:21:53.534Z,3876
2017-12-08T09:22:53.333Z,3896
2017-12-08T09:23:53.322Z,3980
2017-12-08T09:24:53.033Z,4092
2017-12-08T09:25:53.305Z,3944
2017-12-08T09:26:53.296Z,3860
2017-12-08T09:27:53.294Z,3968
2017-12-08T09:28:53.241Z,4132
2017-12-08T09:29:53.033Z,4112
2017-12-08T09:30:53.223Z,4008
2017-12-08T09:31:53.215Z,3912
2017-12-08T09:32:53.189Z,3864
2017-12-08T09:33:53.191Z,3848
2017-12-08T09:34:53.186Z,3840
2017-12-08T09:35:53.214Z,3824
2017-12-08T09:36:53.139Z,3876
2017-12-08T09:37:53.141Z,3856
2017-12-08T09:38:53.143Z,3700
2017-12-08T09:39:53.109Z,3564
2017-12-08T09:40:53.133Z,3608
2017-12-08T09:41:53.105Z,3676
2017-12-08T09:42:53.144Z,3732
2017-12-08T09:43:53.054Z,3724
2017-12-08T09:44:53.104Z,3712
2017-12-08T09:45:53.072Z,3460
2017-12-08T09:46:53.047Z,3508
2017-12-08T09:47:53.022Z,3664
2017-12-08T09:48:53.006Z,3740
2017-12-08T09:49:53.009Z,3780
2017-12-08T09:50:53.033Z,3772
2017-12-08T09:51:52.744Z,3704
2017-12-08T09:52:53.004Z,3808
2017-12-08T09:53:53.062Z,3980
2017-12-08T09:54:53.079Z,4020
2017-12-08T09:55:53.094Z,3960
2017-12-08T09:56:53.029Z,3860
2017-12-08T09:57:52.887Z,3880
2017-12-08T09:58:52.649Z,3816
2017-12-08T09:59:52.667Z,3680
2017-12-08T10:00:52.891Z,3636
2017-12-08T10:01:52.869Z,3596
2017-12-08T10:02:52.860Z,3732
2017-12-08T10:03:52.886Z,3928
2017-12-08T10:04:52.836Z,3996
2017-12-08T10:05:52.613Z,4080
2017-12-08T10:06:52.355Z,4296
2017-12-08T10:07:52.597Z,4668
2017-12-08T10:08:52.553Z,4988
2017-12-08T10:09:52.613Z,5164
2017-12-08T10:10:52.767Z,5196
2017-12-08T10:11:52.747Z,4940
2017-12-08T10:12:52.741Z,4888
2017-12-08T10:13:52.205Z,4892
2017-12-08T10:14:52.729Z,5764
2017-12-08T10:15:52.783Z,5980
2017-12-08T10:16:52.746Z,6008
2017-12-08T10:17:52.745Z,5712
2017-12-08T10:18:52.702Z,4944
2017-12-08T10:19:52.641Z,5092
2017-12-08T10:20:52.651Z,5420
2017-12-08T10:21:52.454Z,5076
2017-12-08T10:22:52.468Z,5040
2017-12-08T10:23:53.247Z,5336
2017-12-08T10:24:52.690Z,5252
2017-12-08T10:25:52.161Z,5148
2017-12-08T10:26:52.368Z,5176
2017-12-08T10:27:52.664Z,5660
2017-12-08T10:28:52.603Z,6264
2017-12-08T10:29:52.577Z,6884
2017-12-08T10:30:52.045Z,7300
2017-12-08T10:31:52.558Z,6376
2017-12-08T10:32:52.517Z,5520
2017-12-08T10:33:52.641Z,6008
2017-12-08T10:34:52.585Z,4592
2017-12-08T10:35:52.627Z,4212
2017-12-08T10:36:53.324Z,5828
2017-12-08T10:37:52.610Z,6756
2017-12-08T10:38:52.566Z,5784
2017-12-08T10:39:52.642Z,5112
2017-12-08T10:40:52.507Z,5116
2017-12-08T10:41:52.156Z,4712
2017-12-08T10:42:52.280Z,3884
2017-12-08T10:43:52.416Z,3852
2017-12-08T10:44:52.386Z,3096
2017-12-08T10:45:52.455Z,2680
2017-12-08T10:46:52.416Z,3416
2017-12-08T10:47:52.419Z,3392
2017-12-08T10:48:52.337Z,6720
2017-12-08T10:49:52.328Z,8492
2017-12-08T10:50:52.303Z,8020
2017-12-08T10:51:52.309Z,6240
2017-12-08T10:52:52.345Z,5696
2017-12-08T10:53:52.330Z,6288
2017-12-08T10:54:52.317Z,6380
2017-12-08T10:55:52.299Z,6348
2017-12-08T10:56:52.107Z,6368
2017-12-08T10:57:52.245Z,7476
2017-12-08T10:58:52.237Z,7232
2017-12-08T10:59:51.951Z,7032
2017-12-08T11:00:52.202Z,6364
2017-12-08T11:01:52.227Z,6400
2017-12-08T11:02:52.181Z,6588
2017-12-08T11:03:52.191Z,7792
2017-12-08T11:04:52.224Z,8416
2017-12-08T11:05:52.168Z,7168
2017-12-08T11:06:52.139Z,7072
2017-12-08T11:07:51.874Z,8528
2017-12-08T11:08:52.122Z,8536
2017-12-08T11:09:51.901Z,7296
2017-12-08T11:10:52.190Z,6364
2017-12-08T11:11:51.884Z,6592
2017-12-08T11:12:51.838Z,6276
2017-12-08T11:13:52.092Z,8984
2017-12-08T11:14:52.060Z,8612
2017-12-08T11:15:52.108Z,7828
2017-12-08T11:16:52.058Z,6836
2017-12-08T11:17:52.084Z,5520
2017-12-08T11:18:52.081Z,4796
2017-12-08T11:19:52.004Z,5636
2017-12-08T11:20:52.015Z,5176
2017-12-08T11:21:51.996Z,4960
2017-12-08T11:22:51.985Z,5460
2017-12-08T11:23:51.977Z,5536
2017-12-08T11:24:51.988Z,4952
2017-12-08T11:25:51.731Z,4904
2017-12-08T11:26:51.742Z,5268
2017-12-08T11:27:52.018Z,6180
2017-12-08T11:28:51.930Z,7056
2017-12-08T11:29:51.914Z,6328
2017-12-08T11:30:51.915Z,4944
2017-12-08T11:31:51.891Z,4864
2017-12-08T11:32:51.938Z,5540
2017-12-08T11:33:51.877Z,5928
2017-12-08T11:34:51.868Z,5532
2017-12-08T11:35:51.585Z,5340
2017-12-08T11:36:51.843Z,5356
2017-12-08T11:37:51.577Z,5344
2017-12-08T11:38:51.830Z,5504
2017-12-08T11:39:51.853Z,5156
2017-12-08T11:40:51.864Z,4784
2017-12-08T11:41:51.814Z,4316
2017-12-08T11:42:51.798Z,4344
2017-12-08T11:43:51.767Z,4344
2017-12-08T11:44:51.779Z,4164
2017-12-08T11:45:51.764Z,4204
2017-12-08T11:46:51.759Z,4980
2017-12-08T11:47:51.759Z,5136
2017-12-08T11:48:51.473Z,4456
2017-12-08T11:49:51.743Z,3872
2017-12-08T11:50:51.702Z,3712
2017-12-08T11:51:52.141Z,4436
2017-12-08T11:52:51.677Z,5000
2017-12-08T11:53:51.679Z,4516
2017-12-08T11:54:51.435Z,4460
2017-12-08T11:55:51.661Z,4172
2017-12-08T11:56:51.676Z,4156
2017-12-08T11:57:51.636Z,3684
2017-12-08T11:58:51.359Z,3884
2017-12-08T11:59:51.656Z,3796
2017-12-08T12:00:51.593Z,3728
2017-12-08T12:01:51.604Z,3388
2017-12-08T12:02:51.310Z,3488
2017-12-08T12:03:51.579Z,3584
2017-12-08T12:04:51.568Z,2992
2017-12-08T12:05:51.544Z,2532
2017-12-08T12:06:51.323Z,2528
2017-12-08T12:07:51.264Z,2872
2017-12-08T12:08:51.506Z,3344
2017-12-08T12:09:51.273Z,3208
2017-12-08T12:10:51.522Z,2588
2017-12-08T12:11:51.536Z,2248
2017-12-08T12:12:51.462Z,2172
2017-12-08T12:13:51.480Z,2084
2017-12-08T12:14:51.453Z,1784
2017-12-08T12:15:51.211Z,2124
2017-12-08T12:16:51.177Z,2144
2017-12-08T12:17:51.418Z,2556
2017-12-08T12:18:51.401Z,4240
2017-12-08T12:19:51.383Z,6620
2017-12-08T12:20:51.392Z,7800
2017-12-08T12:21:51.392Z,8112
2017-12-08T12:22:51.366Z,7244
2017-12-08T12:23:51.361Z,6104
2017-12-08T12:24:51.119Z,5428
2017-12-08T12:25:51.335Z,4420
2017-12-08T12:26:51.316Z,4144
2017-12-08T12:27:51.310Z,4312
2017-12-08T12:28:51.308Z,4748
2017-12-08T12:29:51.099Z,4048
2017-12-08T12:30:51.270Z,3096
2017-12-08T12:31:51.683Z,2612
2017-12-08T12:32:50.995Z,2724
2017-12-08T12:33:51.235Z,3320
2017-12-08T12:34:51.220Z,4148
2017-12-08T12:35:51.217Z,4716
2017-12-08T12:36:50.978Z,7088
2017-12-08T12:37:51.205Z,7484
2017-12-08T12:38:51.199Z,6304
2017-12-08T12:39:50.926Z,4748
2017-12-08T12:40:51.208Z,4728
2017-12-08T12:41:51.202Z,4820
2017-12-08T12:42:51.231Z,4396
2017-12-08T12:43:50.908Z,4932
2017-12-08T12:44:50.879Z,7252
2017-12-08T12:45:50.867Z,8452
2017-12-08T12:46:50.875Z,7432
2017-12-08T12:47:51.097Z,7156
2017-12-08T12:48:50.845Z,5932
2017-12-08T12:49:51.114Z,4756
2017-12-08T12:50:51.086Z,4788
2017-12-08T12:51:50.824Z,4492
2017-12-08T12:52:51.071Z,3800
2017-12-08T12:53:51.036Z,3868
2017-12-08T12:54:51.027Z,4820
2017-12-08T12:55:50.795Z,4868
2017-12-08T12:56:51.033Z,4836
2017-12-08T12:57:51.025Z,5356
2017-12-08T12:58:50.503Z,5284
2017-12-08T12:59:51.006Z,4784
2017-12-08T13:00:50.463Z,4328
2017-12-08T13:01:50.979Z,4576
2017-12-08T13:02:50.979Z,4172
2017-12-08T13:03:50.927Z,3632
2017-12-08T13:04:50.944Z,3444
2017-12-08T13:05:50.704Z,3596
2017-12-08T13:06:50.656Z,3908
2017-12-08T13:07:50.904Z,3976
2017-12-08T13:08:50.634Z,3836
2017-12-08T13:09:50.898Z,3340
2017-12-08T13:10:50.723Z,3088
2017-12-08T13:11:50.925Z,3336
2017-12-08T13:12:50.864Z,3444
2017-12-08T13:13:50.835Z,3440
2017-12-08T13:14:50.903Z,3512
2017-12-08T13:15:50.846Z,3388
2017-12-08T13:16:50.303Z,3124
2017-12-08T13:17:50.798Z,3068
2017-12-08T13:18:50.811Z,3256
2017-12-08T13:19:50.795Z,3440
2017-12-08T13:20:50.517Z,3372
2017-12-08T13:21:50.782Z,3384
2017-12-08T13:22:50.484Z,3288
2017-12-08T13:23:50.783Z,3328
2017-12-08T13:24:50.478Z,3540
2017-12-08T13:25:50.726Z,3476
2017-12-08T13:26:50.740Z,3232
2017-12-08T13:27:50.715Z,3220
2017-12-08T13:28:50.418Z,3308
2017-12-08T13:29:50.666Z,3304
2017-12-08T13:30:50.647Z,3240
2017-12-08T13:31:50.652Z,2940
2017-12-08T13:32:51.088Z,2632
2017-12-08T13:33:50.613Z,2432
2017-12-08T13:34:50.377Z,2296
2017-12-08T13:35:50.347Z,2216
2017-12-08T13:36:50.606Z,2152
2017-12-08T13:37:50.323Z,2096
2017-12-08T13:38:50.595Z,2056
2017-12-08T13:39:50.561Z,2056
2017-12-08T13:40:50.579Z,2048
2017-12-08T13:41:50.542Z,2048
2017-12-08T13:42:50.514Z,2028
2017-12-08T13:43:50.263Z,2012
2017-12-08T13:44:50.490Z,2024
2017-12-08T13:45:50.517Z,2008
2017-12-08T13:46:50.506Z,1984
2017-12-08T13:47:50.491Z,1952
2017-12-08T13:48:50.458Z,1916
2017-12-08T13:49:50.502Z,1880
2017-12-08T13:50:50.428Z,1856
2017-12-08T13:51:50.405Z,1832
2017-12-08T13:52:50.439Z,1820
2017-12-08T13:53:50.410Z,1816
2017-12-08T13:54:50.150Z,1848
2017-12-08T13:55:50.431Z,1880
2017-12-08T13:56:50.361Z,1892
2017-12-08T13:57:50.118Z,1856
2017-12-08T13:58:50.112Z,1832
2017-12-08T13:59:50.337Z,1796
2017-12-08T14:00:50.322Z,1748